This is the latest recevied weather packets stored in our database for station/object WA5KWK. If no packets are shown the sender has not sent any weather packets the latest 10 day(s).
| Time | Temp. | Humidity | Pressure | Rain* | Wind** | Luminosity | Snow |
|---|---|---|---|---|---|---|---|
| 1777828504 | 11.11° C | 86% | 1011.4 hPa | 0 mm | - | 265 W/m² | - |
| 1777826105 | 10.56° C | 86% | 1011.2 hPa | 0 mm | - | 192 W/m² | - |
| 1777825204 | 10° C | 87% | 1010.9 hPa | 0 mm | - | 167 W/m² | - |
| 1777819805 | 11.11° C | 85% | 1010.2 hPa | 0 mm | - | 114 W/m² | - |
| 1777816505 | 13.89° C | 69% | 1009.4 hPa | 0 mm | - | 62 W/m² | - |
| 1777814104 | 12.78° C | 74% | 1009 hPa | 0 mm | - | 7 W/m² | - |
| 1777809004 | 16.67° C | 58% | 1009.1 hPa | 0 mm | - | 0 W/m² | - |
| 1777808104 | 16.67° C | 58% | 1009.1 hPa | 0 mm | - | 0 W/m² | - |
| 1777807504 | 17.22° C | 57% | 1009.2 hPa | 0 mm | - | 0 W/m² | - |
| 1777806305 | 17.78° C | 54% | 1009.5 hPa | 0 mm | - | 0 W/m² | - |
| 1777805404 | 17.78° C | 54% | 1009.5 hPa | 0 mm | - | 0 W/m² | - |
| 1777802404 | 16.11° C | 62% | 1009.5 hPa | 0 mm | - | 0 W/m² | - |
| 1777800305 | 16.67° C | 62% | 1009.7 hPa | 0 mm | - | 0 W/m² | - |
| 1777799705 | 16.11° C | 63% | 1009.9 hPa | 0 mm | - | 0 W/m² | - |
| 1777796704 | 15.56° C | 67% | 1010.2 hPa | 0 mm | - | 0 W/m² | - |
| 1777796404 | 15.56° C | 67% | 1010.4 hPa | 0 mm | - | 0 W/m² | - |
| 1777789204 | 15.56° C | 76% | 1011.1 hPa | 0 mm | - | 0 W/m² | - |
| 1777787704 | 15.56° C | 77% | 1011 hPa | 0 mm | - | 0 W/m² | - |
| 1777787405 | 15.56° C | 77% | 1011 hPa | 0 mm | - | 0 W/m² | - |
| 1777785305 | 16.11° C | 77% | 1011.3 hPa | 0 mm | - | 0 W/m² | - |
| 1777785004 | 16.11° C | 77% | 1011.2 hPa | 0 mm | - | 0 W/m² | - |
| 1777784104 | 16.11° C | 77% | 1011.3 hPa | 0 mm | - | 0 W/m² | - |
| 1777783504 | 16.11° C | 78% | 1011.2 hPa | 0 mm | - | 0 W/m² | - |
| 1777782611 | 16.11° C | 79% | 1011.1 hPa | 0 mm | - | 0 W/m² | - |
| 1777779006 | 16.67° C | 77% | 1010.7 hPa | 0 mm | - | 0 W/m² | - |
* Rain latest hour (hover to see other rain measurements)
** Current wind speed in m/s (hover to see current wind gust speed)